Time;durP1;ratioP1;P1;durP2;ratioP2;P2;SDS_P1;SDS_P2;PMS_P1;PMS_P2;Temp;Humidity;BMP_temperature;BMP_pressure;BME280_temperature;BME280_humidity;BME280_pressure;Samples;Min_cycle;Max_cycle;Signal;HPM_P1;HPM_P2
2022/09/24 00:02:20;;;;;;;16.02;11.15;;;8.20;99.90;;;;;;2585939;54;20245;31
2022/09/24 00:04:54;;;;;;;18.37;11.63;;;8.20;99.90;;;;;;2586035;54;20090;31
2022/09/24 00:07:28;;;;;;;14.85;9.88;;;8.20;99.90;;;;;;2586294;54;21248;31
2022/09/24 00:10:00;;;;;;;15.55;9.85;;;8.20;99.90;;;;;;2586073;54;20938;31
2022/09/24 00:12:33;;;;;;;15.47;10.07;;;8.20;99.90;;;;;;2586108;54;20855;31
2022/09/24 00:15:05;;;;;;;13.65;8.70;;;8.20;99.90;;;;;;2586059;54;20073;31
2022/09/24 00:17:38;;;;;;;16.20;9.50;;;8.10;99.90;;;;;;2604558;46;20961;31
2022/09/24 00:20:11;;;;;;;14.65;10.00;;;8.10;99.90;;;;;;2586044;54;20053;31
2022/09/24 00:22:45;;;;;;;13.20;8.60;;;8.10;99.90;;;;;;2586324;54;20934;31
2022/09/24 00:28:01;;;;;;;14.10;10.32;;;8.00;99.90;;;;;;2585851;54;20050;31
2022/09/24 00:30:33;;;;;;;14.25;9.55;;;8.00;99.90;;;;;;2604483;46;20018;31
2022/09/24 00:33:04;;;;;;;15.52;10.43;;;8.00;99.90;;;;;;2596616;46;20842;31
2022/09/24 00:35:35;;;;;;;20.38;11.07;;;7.90;99.90;;;;;;2586047;54;20109;31
2022/09/24 00:38:09;;;;;;;15.20;9.90;;;7.90;99.90;;;;;;2586073;54;20140;31
2022/09/24 00:40:41;;;;;;;15.20;9.37;;;7.90;99.90;;;;;;2586079;54;20029;31
2022/09/24 00:43:25;;;;;;;14.97;9.20;;;8.00;99.90;;;;;;2586374;54;20873;31
2022/09/24 00:45:58;;;;;;;20.20;11.50;;;7.90;99.90;;;;;;2586272;54;20905;31
2022/09/24 00:48:33;;;;;;;18.83;11.63;;;7.90;99.90;;;;;;2585848;54;20975;31
2022/09/24 00:51:05;;;;;;;18.67;9.85;;;7.80;99.90;;;;;;2586138;54;21088;31
2022/09/24 00:53:44;;;;;;;14.90;9.65;;;7.80;99.90;;;;;;2586062;54;20113;31
2022/09/24 00:56:16;;;;;;;18.52;10.02;;;7.90;99.90;;;;;;2586190;54;20796;31
2022/09/24 00:58:51;;;;;;;11.80;7.70;;;7.80;99.90;;;;;;2586275;54;20030;31
2022/09/24 01:01:24;;;;;;;16.25;8.75;;;7.70;99.90;;;;;;2586273;54;20079;31
2022/09/24 01:03:56;;;;;;;14.73;9.60;;;7.90;99.90;;;;;;2604555;46;20066;31
2022/09/24 01:06:27;;;;;;;14.15;9.10;;;7.70;99.90;;;;;;2591218;46;20848;31
2022/09/24 01:09:01;;;;;;;15.40;9.70;;;7.70;99.90;;;;;;2604653;46;20847;31
2022/09/24 01:11:39;;;;;;;15.05;9.00;;;7.70;99.90;;;;;;2586007;54;20058;31
2022/09/24 01:14:27;;;;;;;17.00;10.80;;;7.70;99.90;;;;;;2586266;54;20807;31
2022/09/24 01:17:02;;;;;;;11.85;7.72;;;7.60;99.90;;;;;;2586151;54;20373;31
2022/09/24 01:20:00;;;;;;;16.27;9.80;;;7.70;99.90;;;;;;2586126;54;20885;31
2022/09/24 01:22:42;;;;;;;15.90;9.60;;;7.60;99.90;;;;;;2585949;54;20139;31
2022/09/24 01:25:21;;;;;;;12.93;8.63;;;7.60;99.90;;;;;;2604496;46;20818;31
2022/09/24 01:28:03;;;;;;;14.48;9.15;;;7.60;99.90;;;;;;2586185;54;20904;31
2022/09/24 01:30:39;;;;;;;17.30;10.10;;;7.60;99.90;;;;;;2586237;54;20026;31
2022/09/24 01:33:17;;;;;;;13.93;8.57;;;7.50;99.90;;;;;;2604942;46;20037;31
2022/09/24 01:35:53;;;;;;;14.68;9.18;;;7.50;99.90;;;;;;2604842;46;20050;31
2022/09/24 01:38:29;;;;;;;14.23;9.48;;;7.50;99.90;;;;;;2586008;54;20895;31
2022/09/24 01:41:02;;;;;;;12.00;7.53;;;7.40;99.90;;;;;;2586160;54;20034;31
2022/09/24 01:43:32;;;;;;;15.98;9.55;;;7.50;99.90;;;;;;2586054;54;20884;31
2022/09/24 01:46:11;;;;;;;12.80;8.25;;;7.40;99.90;;;;;;2585841;54;19976;31
2022/09/24 01:48:42;;;;;;;13.50;8.88;;;7.40;99.90;;;;;;2585727;54;20731;31
2022/09/24 01:51:19;;;;;;;12.70;8.80;;;7.40;99.90;;;;;;2585911;54;20815;31
2022/09/24 01:53:53;;;;;;;12.00;7.93;;;7.40;99.90;;;;;;2584869;54;20767;31
2022/09/24 01:56:28;;;;;;;11.70;7.70;;;7.40;99.90;;;;;;2586151;54;20257;31
2022/09/24 01:59:02;;;;;;;11.65;7.95;;;7.40;99.90;;;;;;2585763;54;20081;31
2022/09/24 02:01:38;;;;;;;16.30;9.50;;;7.40;99.90;;;;;;2585862;54;20030;31
2022/09/24 02:04:14;;;;;;;13.33;7.17;;;7.40;99.90;;;;;;2592391;46;20901;31
2022/09/24 02:06:49;;;;;;;14.02;8.63;;;7.40;99.90;;;;;;2586050;54;20938;31
2022/09/24 02:09:35;;;;;;;13.80;8.95;;;7.40;99.90;;;;;;2683042;39;21676;31
2022/09/24 02:12:09;;;;;;;15.70;10.67;;;7.40;99.90;;;;;;2683520;39;20555;31
2022/09/24 02:14:42;;;;;;;16.73;9.98;;;7.40;99.90;;;;;;2585659;54;20932;31
2022/09/24 02:17:17;;;;;;;12.70;9.07;;;7.40;99.90;;;;;;2585788;54;20885;31
2022/09/24 02:19:48;;;;;;;14.07;9.45;;;7.40;99.90;;;;;;2585740;54;20034;31
2022/09/24 02:22:20;;;;;;;16.13;9.95;;;7.30;99.90;;;;;;2605499;39;21145;31
2022/09/24 02:24:52;;;;;;;14.75;9.93;;;7.30;99.90;;;;;;2585758;54;20950;31
2022/09/24 02:27:23;;;;;;;16.55;10.32;;;7.40;99.90;;;;;;2585829;54;20930;31
2022/09/24 02:29:54;;;;;;;15.60;10.60;;;7.30;99.90;;;;;;2585640;54;20740;31
2022/09/24 02:32:30;;;;;;;19.30;11.68;;;7.30;99.90;;;;;;2585565;54;20341;31
2022/09/24 02:35:02;;;;;;;;;;;7.30;99.90;;;;;;2604650;47;20026;31
2022/09/24 02:37:35;;;;;;;17.13;9.70;;;7.30;99.90;;;;;;2586026;54;19935;31
2022/09/24 02:40:09;;;;;;;15.80;9.88;;;7.30;99.90;;;;;;2585741;54;20045;31
2022/09/24 02:42:41;;;;;;;14.65;9.25;;;7.30;99.90;;;;;;2585599;54;20895;31
2022/09/24 02:45:13;;;;;;;16.90;9.80;;;7.30;99.90;;;;;;2585528;54;20030;31
2022/09/24 02:47:47;;;;;;;18.02;11.43;;;7.30;99.90;;;;;;2585568;54;20892;31
2022/09/24 02:50:19;;;;;;;13.47;9.63;;;7.30;99.90;;;;;;2603876;47;20774;31
2022/09/24 02:52:51;;;;;;;16.02;10.07;;;7.30;99.90;;;;;;2585366;54;20867;31
2022/09/24 02:55:23;;;;;;;15.00;10.60;;;7.30;99.90;;;;;;2604159;47;20053;31
2022/09/24 02:57:53;;;;;;;21.00;10.60;;;7.30;99.90;;;;;;2585236;54;20048;31
2022/09/24 03:00:27;;;;;;;16.80;10.48;;;7.30;99.90;;;;;;2604087;47;20895;31
2022/09/24 03:03:02;;;;;;;14.48;10.27;;;7.30;99.90;;;;;;2585813;54;20756;31
2022/09/24 03:05:33;;;;;;;18.10;10.00;;;7.30;99.90;;;;;;2585608;54;20825;31
2022/09/24 03:08:06;;;;;;;12.73;9.50;;;7.40;99.90;;;;;;2585395;54;20268;31
2022/09/24 03:10:38;;;;;;;16.50;9.70;;;7.30;99.90;;;;;;2585432;54;21194;31
2022/09/24 03:13:12;;;;;;;15.70;11.00;;;7.30;99.90;;;;;;2585712;54;20100;31
2022/09/24 03:15:44;;;;;;;14.32;9.82;;;7.30;99.90;;;;;;2683249;39;21546;31
2022/09/24 03:18:18;;;;;;;13.85;9.40;;;7.30;99.90;;;;;;2585636;54;20161;31
2022/09/24 03:20:57;;;;;;;16.20;10.60;;;7.30;99.90;;;;;;2585573;54;20166;31
2022/09/24 03:23:27;;;;;;;15.82;11.40;;;7.50;99.90;;;;;;2604044;47;20030;31
2022/09/24 03:25:58;;;;;;;17.58;10.90;;;7.30;99.90;;;;;;2585486;54;20894;31
2022/09/24 03:28:31;;;;;;;16.13;10.30;;;7.30;99.90;;;;;;2604070;47;20067;31
2022/09/24 03:31:01;;;;;;;13.63;9.80;;;7.40;99.90;;;;;;2591988;47;20997;31
2022/09/24 03:33:37;;;;;;;17.02;11.88;;;7.40;99.90;;;;;;2586160;54;20038;31
2022/09/24 03:36:09;;;;;;;16.65;12.30;;;7.40;99.90;;;;;;2586042;54;20130;31
2022/09/24 03:38:42;;;;;;;18.20;12.57;;;7.40;99.90;;;;;;2586281;54;20132;31
2022/09/24 03:41:14;;;;;;;19.70;11.07;;;7.40;99.90;;;;;;2586206;54;20906;31
2022/09/24 03:43:46;;;;;;;20.13;12.55;;;7.40;99.90;;;;;;2683935;39;20420;31
2022/09/24 03:46:18;;;;;;;15.52;10.85;;;7.50;99.90;;;;;;2586194;54;20058;31
2022/09/24 03:48:52;;;;;;;19.15;12.10;;;7.40;99.90;;;;;;2586205;54;20809;31
2022/09/24 03:51:24;;;;;;;18.83;12.75;;;7.40;99.90;;;;;;2585315;54;20257;31
2022/09/24 03:53:58;;;;;;;17.30;11.15;;;7.30;99.90;;;;;;2586460;54;20065;31
2022/09/24 03:56:32;;;;;;;21.25;14.05;;;7.30;99.90;;;;;;2585349;54;20835;31
2022/09/24 03:59:04;;;;;;;21.40;13.93;;;7.40;99.90;;;;;;2585211;54;20134;31
2022/09/24 04:01:37;;;;;;;15.60;11.70;;;7.30;99.90;;;;;;2586144;54;20060;31
2022/09/24 04:04:15;;;;;;;16.92;11.93;;;7.30;99.90;;;;;;2586264;54;20851;31
2022/09/24 04:06:49;;;;;;;17.08;10.50;;;7.30;99.90;;;;;;2586135;54;20101;31
2022/09/24 04:09:20;;;;;;;17.05;11.60;;;7.30;99.90;;;;;;2586253;54;20037;31
2022/09/24 04:11:52;;;;;;;20.30;11.98;;;7.30;99.90;;;;;;2604832;46;20053;31
2022/09/24 04:14:25;;;;;;;17.67;13.20;;;7.30;99.90;;;;;;2586317;54;20955;31
2022/09/24 04:16:56;;;;;;;18.87;12.80;;;7.30;99.90;;;;;;2586221;54;20770;31
2022/09/24 04:19:33;;;;;;;17.83;13.13;;;7.30;99.90;;;;;;2586056;54;20763;31
2022/09/24 04:22:04;;;;;;;17.33;12.38;;;7.30;99.90;;;;;;2586079;54;20918;31
2022/09/24 04:24:35;;;;;;;21.23;13.47;;;7.30;99.90;;;;;;2586284;54;20903;31
2022/09/24 04:27:07;;;;;;;20.80;14.25;;;7.30;99.90;;;;;;2585852;54;20822;31
2022/09/24 04:29:41;;;;;;;18.17;12.50;;;7.30;99.90;;;;;;2585870;54;20094;31
2022/09/24 04:32:13;;;;;;;21.00;13.30;;;7.30;99.90;;;;;;2586315;54;20026;31
2022/09/24 04:34:47;;;;;;;18.77;13.37;;;7.30;99.90;;;;;;2586070;54;20039;31
2022/09/24 04:37:19;;;;;;;20.02;14.88;;;7.30;99.90;;;;;;2604376;46;20085;31
2022/09/24 04:39:50;;;;;;;21.03;13.20;;;7.40;99.90;;;;;;2586137;54;20754;31
2022/09/24 04:42:21;;;;;;;20.20;14.10;;;7.30;99.90;;;;;;2585936;54;20895;31
2022/09/24 04:44:53;;;;;;;20.95;14.90;;;7.30;99.90;;;;;;2604620;46;20049;31
2022/09/24 04:47:25;;;;;;;24.38;15.90;;;7.30;99.90;;;;;;2604679;46;20826;31
2022/09/24 04:50:01;;;;;;;23.60;15.47;;;7.30;99.90;;;;;;2586143;54;20744;31
2022/09/24 04:52:34;;;;;;;21.30;13.45;;;7.30;99.90;;;;;;2604827;46;20405;31
2022/09/24 04:55:07;;;;;;;20.30;13.00;;;7.30;99.90;;;;;;2683264;39;22414;31
2022/09/24 04:57:40;;;;;;;17.45;13.20;;;7.30;99.90;;;;;;2585873;54;20847;31
2022/09/24 05:00:16;;;;;;;21.27;13.30;;;7.30;99.90;;;;;;2585888;54;20958;31
2022/09/24 05:02:48;;;;;;;25.80;15.07;;;7.30;99.90;;;;;;2585037;54;22385;31
2022/09/24 05:05:25;;;;;;;19.90;13.70;;;7.30;99.90;;;;;;2586095;54;20769;31
2022/09/24 05:07:57;;;;;;;22.60;16.17;;;7.30;99.90;;;;;;2591164;46;21121;31
2022/09/24 05:10:30;;;;;;;17.75;12.88;;;7.40;99.90;;;;;;2585933;54;20026;31
2022/09/24 05:13:02;;;;;;;17.80;12.50;;;7.20;99.90;;;;;;2604831;46;20033;31
2022/09/24 05:15:33;;;;;;;18.15;13.80;;;7.30;99.90;;;;;;2585765;54;20147;31
2022/09/24 05:18:11;;;;;;;25.00;13.65;;;7.40;99.90;;;;;;2585906;54;20724;31
2022/09/24 05:20:46;;;;;;;21.52;14.15;;;7.40;99.90;;;;;;2585908;54;20756;31
2022/09/24 05:23:17;;;;;;;17.75;12.60;;;7.40;99.90;;;;;;2595677;46;20042;31
2022/09/24 05:28:32;;;;;;;23.95;15.18;;;7.50;99.90;;;;;;2585863;54;21099;31
2022/09/24 05:31:03;;;;;;;19.77;15.37;;;7.50;99.90;;;;;;2604682;46;20751;31
2022/09/24 05:33:35;;;;;;;22.50;16.13;;;7.60;99.90;;;;;;2604657;46;20293;31
2022/09/24 05:36:10;;;;;;;19.30;14.23;;;7.70;99.90;;;;;;2585884;54;20030;31
2022/09/24 05:38:41;;;;;;;22.37;14.23;;;7.50;99.90;;;;;;2585815;54;20744;31
2022/09/24 05:41:12;;;;;;;20.23;11.98;;;7.50;99.90;;;;;;2683436;39;20473;31
2022/09/24 05:43:44;;;;;;;23.20;15.48;;;7.50;99.90;;;;;;2604624;46;20749;31
2022/09/24 05:46:16;;;;;;;19.98;14.00;;;7.60;99.90;;;;;;2585967;54;20891;31
2022/09/24 05:48:48;;;;;;;18.40;14.60;;;7.60;99.90;;;;;;2585791;54;20042;31
2022/09/24 05:51:22;;;;;;;20.40;15.70;;;7.60;99.90;;;;;;2585783;54;20136;31
2022/09/24 05:53:54;;;;;;;21.63;16.20;;;7.70;99.90;;;;;;2585369;54;20057;31
2022/09/24 05:56:26;;;;;;;20.90;14.65;;;7.70;99.90;;;;;;2585875;54;20870;31
2022/09/24 05:59:00;;;;;;;19.00;14.45;;;7.70;99.90;;;;;;2585748;54;19935;31
2022/09/24 06:01:32;;;;;;;24.58;15.90;;;7.90;99.90;;;;;;2586013;54;20900;31
2022/09/24 06:04:04;;;;;;;23.33;16.80;;;7.80;99.90;;;;;;2585895;54;20085;31
2022/09/24 06:06:45;;;;;;;20.00;16.65;;;7.90;99.90;;;;;;2591274;46;20767;31
2022/09/24 06:09:17;;;;;;;24.20;16.75;;;7.90;99.90;;;;;;2588927;39;21097;31
2022/09/24 06:11:55;;;;;;;16.65;13.75;;;7.90;99.90;;;;;;2585589;54;20053;31
2022/09/24 06:14:25;;;;;;;19.98;16.25;;;8.00;99.90;;;;;;2585829;54;20917;31
2022/09/24 06:16:57;;;;;;;22.40;15.97;;;8.00;99.90;;;;;;2585864;54;20026;31
2022/09/24 06:19:31;;;;;;;22.67;16.65;;;8.10;99.90;;;;;;2591050;47;20332;31
2022/09/24 06:22:07;;;;;;;24.00;16.42;;;8.10;99.90;;;;;;2585436;54;20027;31
2022/09/24 06:24:39;;;;;;;24.90;17.70;;;8.10;99.90;;;;;;2585544;54;20069;31
2022/09/24 06:27:11;;;;;;;24.50;17.40;;;8.20;99.90;;;;;;2585824;54;20246;31
2022/09/24 06:29:43;;;;;;;28.65;18.60;;;8.20;99.90;;;;;;2585656;54;20732;31
2022/09/24 06:32:14;;;;;;;26.97;15.63;;;8.30;99.90;;;;;;2585568;54;20074;31
2022/09/24 06:34:46;;;;;;;22.93;16.70;;;8.40;99.90;;;;;;2585812;54;20270;31
2022/09/24 06:37:21;;;;;;;24.77;16.80;;;8.40;99.90;;;;;;2585797;54;20025;31
2022/09/24 06:39:54;;;;;;;21.90;15.75;;;8.70;99.90;;;;;;2603935;47;20893;31
2022/09/24 06:42:26;;;;;;;25.92;16.10;;;8.70;99.90;;;;;;2585593;54;20961;31
2022/09/24 06:45:01;;;;;;;26.90;16.80;;;8.90;99.90;;;;;;2585812;54;20018;31
2022/09/24 06:47:35;;;;;;;23.43;16.40;;;9.00;99.90;;;;;;2604520;47;20056;31
2022/09/24 06:50:08;;;;;;;25.80;17.10;;;9.00;99.90;;;;;;2585870;54;20022;31
2022/09/24 06:52:43;;;;;;;24.45;15.65;;;9.20;99.90;;;;;;2585510;54;21271;31
2022/09/24 06:55:15;;;;;;;20.98;15.13;;;9.30;99.90;;;;;;2585611;54;20045;31
2022/09/24 06:57:46;;;;;;;21.93;15.97;;;9.40;99.90;;;;;;2585494;54;20042;31
2022/09/24 07:00:18;;;;;;;22.65;16.38;;;9.50;99.90;;;;;;2585695;54;21170;31
2022/09/24 07:02:53;;;;;;;22.35;16.85;;;9.70;99.90;;;;;;2584632;54;20031;31
2022/09/24 07:05:25;;;;;;;24.70;16.90;;;10.00;99.90;;;;;;2586219;54;20865;31
2022/09/24 07:08:00;;;;;;;22.52;15.82;;;10.20;99.90;;;;;;2593627;46;20819;31
2022/09/24 07:10:33;;;;;;;24.10;17.67;;;10.60;99.90;;;;;;2586106;54;20911;31
2022/09/24 07:13:05;;;;;;;20.50;14.73;;;10.90;99.90;;;;;;2586376;54;20089;31
2022/09/24 07:15:37;;;;;;;20.10;14.47;;;11.40;99.90;;;;;;2586398;54;20019;31
2022/09/24 07:18:09;;;;;;;19.38;13.65;;;11.70;99.90;;;;;;2586422;54;20023;31
2022/09/24 07:20:44;;;;;;;17.50;12.10;;;11.60;99.90;;;;;;2585382;54;20077;31
2022/09/24 07:23:20;;;;;;;18.95;13.20;;;11.70;99.90;;;;;;2586223;54;21154;31
2022/09/24 07:25:56;;;;;;;16.20;11.70;;;11.70;99.90;;;;;;2586438;54;20906;31
2022/09/24 07:28:27;;;;;;;16.00;11.50;;;11.80;99.90;;;;;;2586559;54;20733;31
2022/09/24 07:30:59;;;;;;;17.33;10.40;;;11.70;99.90;;;;;;2586278;54;20046;31
2022/09/24 07:33:32;;;;;;;14.02;10.23;;;11.70;99.90;;;;;;2586526;54;20805;31
2022/09/24 07:36:07;;;;;;;14.90;9.65;;;11.80;99.90;;;;;;2586197;54;20959;31
2022/09/24 07:38:42;;;;;;;12.48;8.30;;;11.80;99.90;;;;;;2586446;54;20859;31
2022/09/24 07:41:14;;;;;;;11.18;8.20;;;11.90;99.90;;;;;;2586174;54;20019;31
2022/09/24 07:43:46;;;;;;;13.05;7.60;;;11.90;99.90;;;;;;2586172;54;20839;31
2022/09/24 07:46:17;;;;;;;11.15;7.55;;;12.00;99.90;;;;;;2586328;54;20026;31
2022/09/24 07:48:49;;;;;;;13.90;7.68;;;12.10;99.90;;;;;;2586180;54;20046;31
2022/09/24 07:51:20;;;;;;;11.57;7.60;;;12.20;99.90;;;;;;2604901;46;20074;31
2022/09/24 07:53:54;;;;;;;11.65;8.00;;;12.20;99.90;;;;;;2586704;46;20835;31
2022/09/24 07:56:26;;;;;;;13.60;8.93;;;12.30;99.90;;;;;;2586374;54;20144;31
2022/09/24 07:58:58;;;;;;;12.60;8.20;;;12.40;99.90;;;;;;2586342;54;20872;31
2022/09/24 08:01:29;;;;;;;10.18;7.65;;;12.40;99.90;;;;;;2586226;54;19941;31
2022/09/24 08:04:03;;;;;;;10.93;6.87;;;12.50;99.90;;;;;;2604770;46;20954;31
2022/09/24 08:06:36;;;;;;;12.23;8.03;;;12.50;99.90;;;;;;2601381;46;20839;31
2022/09/24 08:09:16;;;;;;;11.07;7.53;;;12.50;99.90;;;;;;2586106;54;20314;31
2022/09/24 08:11:48;;;;;;;12.93;7.87;;;12.60;99.90;;;;;;2586041;54;20958;31
2022/09/24 08:14:20;;;;;;;12.67;7.43;;;12.70;99.90;;;;;;2586131;54;20090;31
2022/09/24 08:16:51;;;;;;;10.45;6.60;;;12.80;99.90;;;;;;2585854;54;20900;31
2022/09/24 08:19:27;;;;;;;13.40;6.40;;;12.90;99.90;;;;;;2586308;54;20027;31
2022/09/24 08:22:00;;;;;;;13.95;7.20;;;13.00;99.90;;;;;;2586039;54;20147;31
2022/09/24 08:24:36;;;;;;;10.60;7.30;;;13.20;99.90;;;;;;2585351;54;20878;31
2022/09/24 08:27:07;;;;;;;10.47;6.73;;;13.30;99.90;;;;;;2587418;46;19934;31
2022/09/24 08:29:45;;;;;;;12.90;6.57;;;13.40;99.90;;;;;;2586152;54;20050;31
2022/09/24 08:32:17;;;;;;;11.60;7.38;;;13.60;99.90;;;;;;2585778;54;20105;31
2022/09/24 08:34:48;;;;;;;10.18;5.57;;;13.70;99.90;;;;;;2586255;54;20854;31
2022/09/24 08:37:24;;;;;;;13.73;6.53;;;13.80;99.90;;;;;;2585861;54;20076;31
2022/09/24 08:39:58;;;;;;;11.40;6.50;;;13.90;99.90;;;;;;2586227;54;20031;31
2022/09/24 08:42:41;;;;;;;9.55;5.80;;;14.00;99.90;;;;;;2586148;54;20111;31
2022/09/24 08:47:59;;;;;;;15.65;6.50;;;14.20;99.90;;;;;;2586359;54;20866;31
2022/09/24 08:50:32;;;;;;;12.00;6.25;;;14.40;99.90;;;;;;2586334;54;20886;31
2022/09/24 08:53:12;;;;;;;12.95;5.90;;;14.40;99.90;;;;;;2585999;54;20713;31
2022/09/24 08:55:48;;;;;;;8.77;5.88;;;14.60;99.90;;;;;;2586135;54;21314;31
2022/09/24 08:58:30;;;;;;;9.55;5.55;;;14.60;99.90;;;;;;2586123;54;20864;31
2022/09/24 09:01:06;;;;;;;10.23;6.07;;;15.00;99.90;;;;;;2585774;54;20019;31
2022/09/24 09:03:39;;;;;;;11.13;5.82;;;15.30;99.90;;;;;;2585902;54;20089;31
2022/09/24 09:06:14;;;;;;;10.25;5.47;;;15.30;99.90;;;;;;2585821;54;20022;31
2022/09/24 09:08:50;;;;;;;8.80;5.37;;;15.40;99.90;;;;;;2589780;46;20077;31
2022/09/24 09:11:40;;;;;;;10.98;5.95;;;15.50;99.90;;;;;;2585961;54;20267;31
2022/09/24 09:14:14;;;;;;;9.75;5.70;;;15.70;99.90;;;;;;2586136;54;20026;31
2022/09/24 09:16:48;;;;;;;7.68;4.90;;;15.90;99.90;;;;;;2604722;46;20191;31
2022/09/24 09:19:19;;;;;;;11.27;5.47;;;16.10;99.90;;;;;;2585981;54;20754;31
2022/09/24 09:21:53;;;;;;;11.05;5.53;;;16.20;99.90;;;;;;2586240;54;20069;31
2022/09/24 09:24:28;;;;;;;8.93;5.30;;;16.40;99.90;;;;;;2585848;54;20857;31
2022/09/24 09:27:03;;;;;;;7.65;5.85;;;16.60;99.90;;;;;;2586027;54;20033;31
2022/09/24 09:29:34;;;;;;;8.40;4.45;;;16.80;99.90;;;;;;2585936;54;20048;31
2022/09/24 09:32:10;;;;;;;8.27;5.68;;;16.70;99.90;;;;;;2585940;54;20022;31
2022/09/24 09:34:49;;;;;;;7.88;5.45;;;16.70;99.90;;;;;;2586132;54;20033;31
2022/09/24 09:37:26;;;;;;;6.57;4.40;;;16.70;99.90;;;;;;2585939;54;20844;31
2022/09/24 09:40:08;;;;;;;6.97;4.63;;;16.80;99.90;;;;;;2590884;46;20018;31
2022/09/24 09:42:44;;;;;;;10.05;4.57;;;17.00;99.90;;;;;;2585758;54;20235;31
2022/09/24 09:45:25;;;;;;;7.13;4.60;;;17.00;99.90;;;;;;2586024;54;20897;31
2022/09/24 09:47:58;;;;;;;7.10;4.05;;;17.10;99.90;;;;;;2586224;54;20246;31
2022/09/24 09:50:34;;;;;;;8.30;4.70;;;17.00;99.90;;;;;;2588324;46;20034;31
2022/09/24 09:53:19;;;;;;;;;;;17.00;99.90;;;;;;2585005;54;20073;31
2022/09/24 09:55:55;;;;;;;5.82;4.03;;;16.90;99.90;;;;;;2585874;54;19949;31
2022/09/24 09:58:30;;;;;;;5.75;4.00;;;16.80;99.90;;;;;;2586190;54;20729;31
2022/09/24 10:01:08;;;;;;;7.15;4.35;;;16.70;99.90;;;;;;2604560;46;20866;31
2022/09/24 10:03:49;;;;;;;7.63;4.15;;;16.60;99.90;;;;;;2586143;54;20112;31
2022/09/24 10:06:25;;;;;;;9.20;4.35;;;16.60;99.90;;;;;;2604531;46;20049;31
2022/09/24 10:09:07;;;;;;;4.93;3.15;;;16.60;99.90;;;;;;2586015;54;20852;31
2022/09/24 10:11:39;;;;;;;6.00;3.22;;;16.50;99.90;;;;;;2604332;46;20026;31
2022/09/24 10:14:19;;;;;;;5.55;3.90;;;16.50;99.90;;;;;;2591438;46;20029;31
2022/09/24 10:16:54;;;;;;;8.25;4.10;;;16.50;99.90;;;;;;2585567;54;20863;31
2022/09/24 10:19:26;;;;;;;6.90;3.53;;;16.40;99.90;;;;;;2586116;54;20097;31
2022/09/24 10:22:01;;;;;;;7.17;3.90;;;16.50;99.90;;;;;;2585711;54;20030;31
2022/09/24 10:24:35;;;;;;;7.53;4.07;;;16.60;99.90;;;;;;2588879;39;22537;31
2022/09/24 10:27:12;;;;;;;6.43;3.80;;;16.70;99.90;;;;;;2585626;54;21625;31
2022/09/24 10:32:34;;;;;;;4.80;3.20;;;16.80;99.90;;;;;;2595303;47;20042;31
2022/09/24 10:35:16;;;;;;;8.00;3.85;;;17.00;99.90;;;;;;2604389;47;20250;31
2022/09/24 10:37:52;;;;;;;6.82;3.67;;;17.30;99.90;;;;;;2585739;54;20652;31
2022/09/24 10:40:27;;;;;;;8.95;3.85;;;17.50;99.90;;;;;;2586432;54;20877;31
2022/09/24 10:43:03;;;;;;;6.57;3.42;;;17.60;99.90;;;;;;2604709;46;20042;31
2022/09/24 10:46:20;;;;;;;5.45;3.45;;;17.70;99.90;;;;;;2586105;54;20190;31
2022/09/24 10:48:56;;;;;;;10.45;4.15;;;17.80;99.90;;;;;;2586037;54;20938;31
2022/09/24 10:51:32;;;;;;;5.00;3.70;;;17.80;99.90;;;;;;2586569;54;20870;31
2022/09/24 10:54:17;;;;;;;8.77;4.10;;;17.80;99.90;;;;;;2586446;54;20818;31
2022/09/24 10:56:50;;;;;;;5.45;3.35;;;17.80;99.90;;;;;;2586834;54;20030;31
2022/09/24 10:59:29;;;;;;;4.17;3.27;;;17.80;99.90;;;;;;2586577;54;20130;31
2022/09/24 11:02:15;;;;;;;5.50;3.60;;;17.90;99.90;;;;;;2605449;46;20251;31
2022/09/24 11:04:52;;;;;;;8.98;3.45;;;18.00;99.90;;;;;;2586500;54;20042;31
2022/09/24 11:07:57;;;;;;;5.60;3.50;;;18.00;99.90;;;;;;2586388;54;20026;31
2022/09/24 11:10:38;;;;;;;7.22;3.28;;;18.10;99.90;;;;;;2586408;54;20767;31
2022/09/24 11:13:15;;;;;;;4.05;3.08;;;18.30;99.90;;;;;;2586659;54;20766;31
2022/09/24 11:15:58;;;;;;;6.73;3.87;;;18.30;99.90;;;;;;2586447;54;20924;31
2022/09/24 11:18:38;;;;;;;8.70;3.40;;;18.40;99.90;;;;;;2586372;54;20939;31
2022/09/24 11:21:16;;;;;;;6.25;3.33;;;18.30;99.90;;;;;;2586567;54;21190;31
2022/09/24 11:23:58;;;;;;;5.53;3.92;;;18.40;99.90;;;;;;2586601;54;20026;31
2022/09/24 11:26:33;;;;;;;6.37;3.30;;;18.50;99.90;;;;;;2605199;46;20089;31
2022/09/24 11:29:25;;;;;;;6.30;2.50;;;18.50;99.90;;;;;;2586465;54;20961;31
2022/09/24 11:32:05;;;;;;;3.90;3.40;;;18.50;99.90;;;;;;2586535;54;20740;31
2022/09/24 11:34:52;;;;;;;5.45;3.30;;;18.60;99.90;;;;;;2586348;54;20106;31
2022/09/24 11:37:30;;;;;;;7.57;3.10;;;18.50;99.90;;;;;;2586203;54;20050;31
2022/09/24 11:40:12;;;;;;;6.03;3.05;;;18.40;99.90;;;;;;2586803;54;20850;31
2022/09/24 11:42:50;;;;;;;6.10;3.55;;;18.40;99.90;;;;;;2605333;46;20026;31
2022/09/24 11:45:34;;;;;;;5.72;3.22;;;18.40;99.90;;;;;;2604592;46;20069;31
2022/09/24 11:48:34;;;;;;;5.30;3.10;;;18.30;99.90;;;;;;2586365;54;20835;31
2022/09/24 11:51:15;;;;;;;4.22;2.75;;;18.30;99.90;;;;;;2585285;54;20948;31
2022/09/24 11:53:49;;;;;;;6.50;2.60;;;18.40;99.90;;;;;;2586527;54;20894;31
2022/09/24 11:56:23;;;;;;;6.10;2.90;;;18.50;99.90;;;;;;2586447;54;20743;31
2022/09/24 11:58:57;;;;;;;3.78;2.80;;;18.50;99.90;;;;;;2586458;54;20081;31
2022/09/24 12:01:29;;;;;;;4.20;3.30;;;18.50;99.90;;;;;;2605214;46;20759;31
2022/09/24 12:04:04;;;;;;;5.65;3.10;;;18.60;99.90;;;;;;2586567;54;20030;31
2022/09/24 12:06:41;;;;;;;4.85;3.10;;;18.60;99.90;;;;;;2604914;46;20755;31
2022/09/24 12:09:16;;;;;;;3.78;2.90;;;18.50;99.90;;;;;;2586468;54;20034;31
2022/09/24 12:11:49;;;;;;;4.50;2.70;;;18.50;99.90;;;;;;2586136;54;20903;31
2022/09/24 12:14:23;;;;;;;4.15;3.00;;;18.60;99.90;;;;;;2589606;39;22357;31
2022/09/24 12:16:58;;;;;;;6.05;3.17;;;18.60;99.90;;;;;;2586355;54;20048;31
2022/09/24 12:19:34;;;;;;;6.45;3.05;;;18.50;99.90;;;;;;2604891;46;20881;31
2022/09/24 12:22:09;;;;;;;3.83;3.00;;;18.50;99.90;;;;;;2586315;54;20023;31
2022/09/24 12:24:44;;;;;;;5.20;2.90;;;18.40;99.90;;;;;;2586156;54;20395;31
2022/09/24 12:27:17;;;;;;;4.50;3.00;;;18.40;99.90;;;;;;2586413;54;20755;31
2022/09/24 12:35:23;;;;;;;4.65;2.17;;;18.40;99.90;;;;;;2586256;54;20737;31
2022/09/24 12:38:02;;;;;;;3.38;2.30;;;18.40;99.90;;;;;;2586239;54;20120;31
2022/09/24 12:41:02;;;;;;;3.35;2.35;;;18.50;99.90;;;;;;2586093;54;20858;31
2022/09/24 12:43:36;;;;;;;5.32;2.67;;;18.50;99.90;;;;;;2586153;54;20027;31
2022/09/24 12:46:08;;;;;;;3.90;2.35;;;18.50;99.90;;;;;;2594183;46;20053;31
2022/09/24 12:48:41;;;;;;;4.18;2.38;;;18.50;99.90;;;;;;2588157;46;20081;31
2022/09/24 12:51:13;;;;;;;3.55;2.10;;;18.50;99.90;;;;;;2589539;39;22364;31
2022/09/24 12:53:57;;;;;;;5.85;2.22;;;18.60;99.90;;;;;;2586064;54;20902;31
2022/09/24 12:56:30;;;;;;;4.15;2.10;;;18.50;99.90;;;;;;2586265;54;20879;31
2022/09/24 12:59:04;;;;;;;4.63;2.35;;;18.50;99.90;;;;;;2586513;54;20853;31
2022/09/24 13:01:37;;;;;;;3.20;2.20;;;18.40;99.90;;;;;;2586080;54;20110;31
2022/09/24 13:04:27;;;;;;;3.33;2.28;;;18.40;99.90;;;;;;2585990;54;21030;31
2022/09/24 13:06:59;;;;;;;2.47;1.92;;;18.40;99.90;;;;;;2586128;54;20046;31
2022/09/24 13:09:39;;;;;;;3.90;2.50;;;18.40;99.90;;;;;;2586329;54;20027;31
2022/09/24 13:12:23;;;;;;;2.70;1.80;;;18.30;99.90;;;;;;2586323;54;20034;31
2022/09/24 13:15:00;;;;;;;3.55;2.00;;;18.30;99.90;;;;;;2585931;54;20027;31
2022/09/24 13:17:31;;;;;;;2.92;1.92;;;18.30;99.90;;;;;;2586291;54;20069;31
2022/09/24 13:20:06;;;;;;;2.97;1.95;;;18.30;99.90;;;;;;2586240;54;20033;31
2022/09/24 13:22:38;;;;;;;6.68;2.13;;;18.30;99.90;;;;;;2589570;46;20049;31
2022/09/24 13:25:24;;;;;;;3.28;2.20;;;18.30;99.90;;;;;;2604344;46;20934;31
2022/09/24 13:28:03;;;;;;;4.95;2.10;;;18.40;99.90;;;;;;2585924;54;20046;31
2022/09/24 13:30:39;;;;;;;4.35;2.40;;;18.30;99.90;;;;;;2586035;54;20056;31
2022/09/24 13:33:22;;;;;;;2.63;1.75;;;18.30;99.90;;;;;;2604860;46;20030;31
2022/09/24 13:36:07;;;;;;;3.90;2.28;;;18.30;99.90;;;;;;2586760;46;20026;31
2022/09/24 13:38:40;;;;;;;2.60;2.10;;;18.30;99.90;;;;;;2585978;54;20077;31
2022/09/24 13:41:24;;;;;;;3.00;1.92;;;18.30;99.90;;;;;;2586075;54;20286;31
2022/09/24 13:43:58;;;;;;;3.00;1.90;;;18.30;99.90;;;;;;2586006;54;20137;31
2022/09/24 13:46:32;;;;;;;2.60;2.00;;;18.20;99.90;;;;;;2586311;54;21173;31
2022/09/24 13:49:05;;;;;;;3.57;1.77;;;18.30;99.90;;;;;;2585739;54;20089;31
2022/09/24 13:51:38;;;;;;;4.45;1.90;;;18.20;99.90;;;;;;2586025;54;20026;31